Bismarck, North Dakota
Current Conditions -  °F | °C
As of 2:52 AM on Sunday 26 Oct 2014 (Local Time) from KBIS Reporting Station
Clear Clear  
Wind Chill: 43°   Ceiling: Unl
Heat Index: 47°   Visibility: 10mi
Dew Point: 31°   Wind: 8mph
Humidity: 54%   Direction: 130°SE
Pressure: 29.82"   Gusts: NA
Location:  46.81°N, 100.77°W
Report Text: KBIS 260752Z AUTO 13007KT 10SM CLR 08/M01 A2982 RMK AO2 SLP099 T00831006
Loading
Personal Weather Stations






























Interactive Weather Map New forecast layout! Learn more

10-Day Weather Forecast

Advertisements
Track Severe Weather on mobile